Time;durP1;ratioP1;P1;durP2;ratioP2;P2;SDS_P1;SDS_P2;PMS_P1;PMS_P2;Temp;Humidity;BMP_temperature;BMP_pressure;BME280_temperature;BME280_humidity;BME280_pressure;Samples;Min_cycle;Max_cycle;Signal;HPM_P1;HPM_P2
2022/08/25 00:01:29;;;;;;;11.68;7.13;;;;;;;20.21;53.04;100544.97;5036351;28;20119;-70
2022/08/25 00:03:54;;;;;;;13.77;7.95;;;;;;;20.16;53.51;100548.16;5036390;28;20044;-70
2022/08/25 00:06:18;;;;;;;13.15;7.15;;;;;;;20.11;53.47;100549.56;5020206;28;20055;-70
2022/08/25 00:08:43;;;;;;;11.55;6.97;;;;;;;20.08;53.62;100541.78;5036401;28;20048;-69
2022/08/25 00:11:18;;;;;;;12.95;7.55;;;;;;;20.07;53.73;100548.19;5036191;28;20036;-71
2022/08/25 00:13:45;;;;;;;;;;;;;;;20.17;52.34;100547.16;5037170;28;20072;-74
2022/08/25 00:16:11;;;;;;;12.88;7.18;;;;;;;20.00;53.74;100542.50;5036013;28;19946;-74
2022/08/25 00:18:38;;;;;;;11.00;6.93;;;;;;;19.94;54.04;100546.66;5036297;28;20052;-70
2022/08/25 00:21:05;;;;;;;15.20;8.02;;;;;;;19.92;54.11;100553.22;5036156;28;20067;-68
2022/08/25 00:23:30;;;;;;;13.13;7.47;;;;;;;19.89;54.20;100551.66;5036158;28;20625;-66
2022/08/25 00:25:55;;;;;;;13.88;7.57;;;;;;;19.88;54.60;100547.25;5036485;28;20036;-71
2022/08/25 00:28:20;;;;;;;11.93;7.25;;;;;;;19.88;54.86;100547.25;5035517;28;20055;-69
2022/08/25 00:30:45;;;;;;;11.18;7.07;;;;;;;19.84;54.91;100539.59;5036002;28;20041;-74
2022/08/25 00:33:10;;;;;;;19.00;7.30;;;;;;;19.83;55.03;100546.84;5035889;28;20055;-72
2022/08/25 00:35:34;;;;;;;15.18;7.10;;;;;;;19.81;55.15;100543.44;5035833;28;20070;-69
2022/08/25 00:37:59;;;;;;;13.15;7.55;;;;;;;19.80;54.83;100539.00;5036227;28;20052;-68
2022/08/25 00:40:25;;;;;;;12.95;8.00;;;;;;;19.80;55.02;100547.13;5035739;28;20899;-69
2022/08/25 00:42:50;;;;;;;10.45;7.50;;;;;;;19.79;54.43;100544.56;5034721;28;20498;-70
2022/08/25 00:45:15;;;;;;;12.63;7.65;;;;;;;19.81;54.25;100543.44;5035618;28;20495;-71
2022/08/25 00:47:40;;;;;;;10.63;7.07;;;;;;;19.82;54.55;100547.00;5035578;28;20109;-68
2022/08/25 00:50:08;;;;;;;12.50;7.13;;;;;;;19.85;54.02;100547.56;5035833;28;20084;-67
2022/08/25 00:52:39;;;;;;;13.63;7.25;;;;;;;19.86;54.14;100538.41;5035404;28;20041;-71
2022/08/25 00:55:21;;;;;;;12.52;7.43;;;;;;;19.88;53.37;100540.97;5035651;28;20058;-69
2022/08/25 00:58:19;;;;;;;12.05;7.38;;;;;;;19.90;53.51;100541.69;5012156;28;20174;-70
2022/08/25 01:00:48;;;;;;;15.68;7.32;;;;;;;19.81;53.60;100546.13;5031521;28;20229;-71
2022/08/25 01:03:13;;;;;;;13.98;7.75;;;;;;;19.77;53.38;100539.28;5035790;28;20101;-70
2022/08/25 01:05:39;;;;;;;11.52;7.13;;;;;;;19.77;53.78;100538.44;5035343;28;20127;-69
2022/08/25 01:08:06;;;;;;;12.88;6.38;;;;;;;19.77;50.90;100541.16;5035705;28;20051;-70
2022/08/25 01:10:33;;;;;;;15.60;7.32;;;;;;;19.79;52.70;100542.72;5035196;28;20040;-70
2022/08/25 01:13:25;;;;;;;12.82;6.75;;;;;;;19.89;52.81;100550.81;5035690;28;20120;-69
2022/08/25 01:15:53;;;;;;;14.10;6.93;;;;;;;19.87;53.56;100540.13;5034551;28;20040;-68
2022/08/25 01:18:18;;;;;;;14.40;6.68;;;;;;;19.84;53.51;100536.88;5034449;28;20491;-70
2022/08/25 01:20:47;;;;;;;16.08;6.95;;;;;;;19.82;51.29;100533.47;5035179;28;20490;-72
2022/08/25 01:23:12;;;;;;;11.65;6.72;;;;;;;19.83;50.81;100541.44;5035761;28;20368;-70
2022/08/25 01:26:08;;;;;;;10.25;6.00;;;;;;;19.89;50.84;100540.81;5017098;28;20444;-70
2022/08/25 01:28:33;;;;;;;10.35;6.38;;;;;;;19.77;52.82;100533.88;5017386;28;20410;-72
2022/08/25 01:30:58;;;;;;;12.80;6.82;;;;;;;19.71;53.14;100534.47;4984038;28;20473;-71
2022/08/25 01:33:23;;;;;;;10.55;6.78;;;;;;;19.65;53.69;100524.22;5035262;28;20053;-72
2022/08/25 01:35:47;;;;;;;13.15;6.78;;;;;;;19.61;53.86;100532.81;5035216;28;20504;-71
2022/08/25 01:38:13;;;;;;;12.23;6.47;;;;;;;19.58;52.93;100531.25;5034544;28;20112;-71
2022/08/25 01:40:40;;;;;;;10.18;7.07;;;;;;;19.58;53.82;100533.94;5017450;28;20036;-71
2022/08/25 01:43:25;;;;;;;11.07;6.43;;;;;;;19.61;53.93;100533.66;5034943;28;20105;-71
2022/08/25 01:45:50;;;;;;;13.18;7.63;;;;;;;19.56;53.92;100535.94;5017439;28;20530;-71
2022/08/25 01:48:18;;;;;;;10.38;7.55;;;;;;;19.55;54.29;100536.94;5034890;28;20514;-71
2022/08/25 01:50:43;;;;;;;16.60;6.95;;;;;;;19.52;54.57;100542.66;5011575;28;20063;-69
2022/08/25 01:53:22;;;;;;;12.18;7.20;;;;;;;19.54;54.62;100532.50;5054760;28;20044;-70
2022/08/25 01:56:00;;;;;;;8.50;6.63;;;;;;;19.49;55.16;100530.25;5054658;28;20397;-70
2022/08/25 01:58:28;;;;;;;14.18;8.43;;;;;;;19.52;53.67;100535.41;5055384;28;20047;-70
2022/08/25 02:00:55;;;;;;;10.10;6.05;;;;;;;19.52;54.80;100540.81;5019809;28;20575;-70
2022/08/25 02:03:21;;;;;;;16.42;6.30;;;;;;;19.51;54.92;100536.38;5036304;28;20473;-70
2022/08/25 02:05:46;;;;;;;11.23;6.93;;;;;;;19.49;55.32;100540.22;5054796;28;20089;-71
2022/08/25 02:08:11;;;;;;;11.10;7.20;;;;;;;19.49;55.56;100540.22;5054880;28;20052;-70
2022/08/25 02:10:36;;;;;;;10.43;7.30;;;;;;;19.48;56.00;100550.19;5055627;28;20036;-72
2022/08/25 02:13:01;;;;;;;15.23;6.97;;;;;;;19.48;54.87;100543.91;5054003;28;20048;-70
2022/08/25 02:15:26;;;;;;;12.40;7.85;;;;;;;19.44;55.31;100543.31;5054476;28;20043;-72
2022/08/25 02:17:50;;;;;;;12.45;7.45;;;;;;;19.41;55.62;100534.66;5036771;28;20502;-70
2022/08/25 02:20:16;;;;;;;11.60;6.95;;;;;;;19.39;55.71;100547.47;5054825;28;20043;-72
2022/08/25 02:22:40;;;;;;;16.73;7.80;;;;;;;19.35;55.58;100537.94;5054666;28;20052;-71
2022/08/25 02:25:05;;;;;;;12.10;7.20;;;;;;;19.34;55.95;100542.47;5054633;28;20096;-70
2022/08/25 02:27:30;;;;;;;12.02;6.88;;;;;;;19.34;56.00;100552.44;5036655;28;20052;-70
2022/08/25 02:29:55;;;;;;;14.20;7.38;;;;;;;19.35;55.97;100543.34;5035626;28;20040;-71
2022/08/25 02:32:20;;;;;;;11.32;7.20;;;;;;;19.34;55.74;100541.63;5054452;28;20048;-71
2022/08/25 02:34:44;;;;;;;14.40;7.25;;;;;;;19.35;56.28;100548.75;5054144;28;20114;-71
2022/08/25 02:37:09;;;;;;;10.52;7.10;;;;;;;19.35;55.59;100548.75;5053920;28;20048;-71
2022/08/25 02:39:34;;;;;;;11.10;7.72;;;;;;;19.33;56.05;100538.06;5035987;28;20486;-70
2022/08/25 02:41:59;;;;;;;15.07;7.28;;;;;;;19.34;55.97;100533.53;5054480;28;20178;-73
2022/08/25 02:44:24;;;;;;;16.83;7.10;;;;;;;19.33;54.13;100531.81;5054346;28;20642;-70
2022/08/25 02:46:49;;;;;;;11.35;7.05;;;;;;;19.35;55.80;100532.53;5036719;28;20510;-72
2022/08/25 02:49:13;;;;;;;13.25;7.63;;;;;;;19.36;55.44;100540.50;5054510;28;20040;-69
2022/08/25 02:51:38;;;;;;;12.30;6.72;;;;;;;19.39;54.58;100540.22;5034970;28;20061;-70
2022/08/25 02:54:04;;;;;;;13.27;7.13;;;;;;;19.44;55.31;100545.16;4999639;28;20525;-70
2022/08/25 02:56:30;;;;;;;15.07;8.18;;;;;;;19.49;55.13;100534.81;5037068;28;20052;-70
2022/08/25 02:58:55;;;;;;;13.27;7.28;;;;;;;19.56;55.17;100535.94;5038223;28;20066;-70
2022/08/25 03:01:20;;;;;;;14.85;7.68;;;;;;;19.63;55.30;100544.34;5038208;28;20056;-70
2022/08/25 03:03:47;;;;;;;12.20;8.13;;;;;;;19.69;55.16;100538.34;5024599;28;20044;-71
2022/08/25 03:06:14;;;;;;;18.35;8.10;;;;;;;19.79;54.68;100541.84;5023296;28;20048;-71
2022/08/25 03:08:40;;;;;;;11.13;6.85;;;;;;;19.88;54.32;100544.53;5020688;28;20071;-72
2022/08/25 03:11:06;;;;;;;12.77;7.75;;;;;;;19.97;53.95;100534.69;5023484;28;20040;-71
2022/08/25 03:13:31;;;;;;;11.63;7.18;;;;;;;20.07;54.22;100540.94;5042961;28;20044;-68
2022/08/25 03:15:56;;;;;;;12.18;7.28;;;;;;;20.16;54.35;100539.16;5039452;28;20097;-74
2022/08/25 03:18:21;;;;;;;9.63;7.43;;;;;;;20.23;53.86;100537.56;5037981;28;20045;-66
2022/08/25 03:20:46;;;;;;;12.05;7.32;;;;;;;20.31;53.77;100534.97;5037491;28;20048;-69
2022/08/25 03:23:11;;;;;;;12.77;7.53;;;;;;;20.40;53.95;100528.69;5019836;28;20049;-68
2022/08/25 03:28:22;;;;;;;13.02;8.05;;;;;;;20.65;53.09;100536.06;5037892;28;20062;-69
2022/08/25 03:30:47;;;;;;;12.15;6.88;;;;;;;20.80;53.03;100532.84;5037346;28;20049;-68
2022/08/25 03:33:12;;;;;;;15.52;8.30;;;;;;;20.95;51.44;100536.72;5037921;28;20036;-68
2022/08/25 03:35:37;;;;;;;10.13;7.75;;;;;;;21.11;49.54;100533.31;5037445;28;20039;-68
2022/08/25 03:38:02;;;;;;;13.93;7.90;;;;;;;21.32;50.94;100529.31;5002477;28;20487;-68
2022/08/25 03:40:27;;;;;;;13.75;8.05;;;;;;;21.52;47.85;100531.81;5037595;28;20044;-69
2022/08/25 03:42:54;;;;;;;14.60;7.55;;;;;;;21.72;48.23;100523.31;5019839;28;20056;-70
2022/08/25 03:45:19;;;;;;;9.93;7.68;;;;;;;21.95;47.07;100523.63;5037526;28;20045;-68
2022/08/25 03:47:48;;;;;;;15.10;8.07;;;;;;;22.21;46.24;100528.22;5038717;28;20059;-68
2022/08/25 03:50:15;;;;;;;13.35;8.05;;;;;;;22.38;45.67;100525.38;5028383;28;20079;-68
2022/08/25 03:52:39;;;;;;;12.07;8.60;;;;;;;22.58;44.66;100525.94;5057873;28;20562;-68
2022/08/25 03:55:08;;;;;;;13.75;7.88;;;;;;;22.80;44.28;100521.78;5039461;28;20620;-68
2022/08/25 03:57:33;;;;;;;17.13;9.15;;;;;;;22.99;43.75;100523.38;5057223;28;20059;-67
2022/08/25 03:59:58;;;;;;;15.48;9.10;;;;;;;23.19;43.26;100519.28;5057709;28;20043;-68
2022/08/25 04:02:23;;;;;;;14.32;8.60;;;;;;;23.36;42.84;100521.00;5057194;28;20048;-68
2022/08/25 04:04:49;;;;;;;11.00;7.90;;;;;;;23.57;42.51;100519.66;5039148;28;20066;-68
2022/08/25 04:07:13;;;;;;;14.55;9.45;;;;;;;23.74;41.75;100521.31;5056687;28;20050;-67
2022/08/25 04:09:38;;;;;;;13.52;8.65;;;;;;;23.88;41.61;100524.19;5056846;28;20040;-67
2022/08/25 04:12:03;;;;;;;11.93;9.43;;;;;;;24.00;41.07;100519.22;5057702;28;20051;-68
2022/08/25 04:14:28;;;;;;;15.02;9.40;;;;;;;24.11;40.79;100518.84;5038611;28;20089;-67
2022/08/25 04:16:53;;;;;;;16.98;9.07;;;;;;;24.19;40.95;100516.09;5057188;28;20044;-68
2022/08/25 04:19:19;;;;;;;14.68;10.05;;;;;;;24.27;40.50;100519.84;5057104;28;20042;-67
2022/08/25 04:21:44;;;;;;;13.48;9.35;;;;;;;24.39;40.42;100516.53;5056715;28;20044;-67
2022/08/25 04:24:11;;;;;;;15.70;9.82;;;;;;;24.53;40.36;100514.94;5056775;28;20040;-66
2022/08/25 04:26:41;;;;;;;18.77;10.93;;;;;;;24.71;40.24;100511.97;5056967;28;20052;-67
2022/08/25 04:29:09;;;;;;;16.95;10.25;;;;;;;24.85;39.56;100509.28;5038311;28;20093;-69
2022/08/25 04:31:33;;;;;;;19.88;10.88;;;;;;;25.00;39.31;100506.66;5056843;28;20043;-67
2022/08/25 04:34:02;;;;;;;19.83;11.73;;;;;;;25.17;38.94;100510.13;5056246;28;20123;-66
2022/08/25 04:36:27;;;;;;;23.30;11.48;;;;;;;25.35;38.78;100499.72;5038583;28;20068;-67
2022/08/25 04:38:52;;;;;;;19.17;12.60;;;;;;;25.52;38.42;100506.72;5021329;28;20067;-66
2022/08/25 04:41:20;;;;;;;19.50;11.88;;;;;;;25.69;38.40;100510.19;5056481;28;20051;-67
2022/08/25 04:43:45;;;;;;;18.90;11.85;;;;;;;25.83;37.56;100505.78;5056722;28;20093;-68
2022/08/25 04:46:13;;;;;;;18.42;12.93;;;;;;;26.03;37.44;100509.66;5038222;28;20048;-68
2022/08/25 04:48:39;;;;;;;19.52;12.50;;;;;;;26.20;36.85;100502.09;5056612;28;20498;-69
2022/08/25 04:51:06;;;;;;;19.15;11.75;;;;;;;26.34;36.76;100504.84;5040979;28;20056;-66
2022/08/25 04:53:32;;;;;;;13.88;11.50;;;;;;;26.46;36.63;100507.94;5018176;28;20040;-69
2022/08/25 04:55:57;;;;;;;17.90;11.82;;;;;;;26.57;36.35;100501.13;5017914;28;20060;-69
2022/08/25 04:58:22;;;;;;;18.23;11.82;;;;;;;26.70;36.04;100510.34;5036029;28;20072;-69
2022/08/25 05:00:46;;;;;;;16.48;11.35;;;;;;;26.81;35.96;100495.31;5036058;28;20114;-70
2022/08/25 05:03:11;;;;;;;21.15;11.52;;;;;;;26.94;35.98;100503.69;5036110;28;20119;-69
2022/08/25 05:05:37;;;;;;;18.35;11.65;;;;;;;27.13;35.48;100504.91;5017976;28;20063;-69
2022/08/25 05:08:02;;;;;;;15.20;11.13;;;;;;;27.37;34.89;100499.03;5017554;28;20072;-69
2022/08/25 05:10:27;;;;;;;23.00;11.15;;;;;;;27.65;34.53;100504.53;5035668;28;20040;-69
2022/08/25 05:12:52;;;;;;;20.02;11.70;;;;;;;27.84;34.35;100508.50;5036724;28;20049;-69
2022/08/25 05:18:00;;;;;;;19.83;11.40;;;;;;;28.57;32.79;100506.13;5027277;28;20047;-69
2022/08/25 05:20:25;;;;;;;21.35;11.27;;;;;;;28.76;32.99;100497.16;5026937;28;20052;-69
2022/08/25 05:22:50;;;;;;;16.92;12.23;;;;;;;29.00;32.17;100496.59;5018592;28;20047;-69
2022/08/25 05:25:15;;;;;;;14.95;10.98;;;;;;;29.24;32.10;100495.97;5036397;28;20044;-70
2022/08/25 05:27:41;;;;;;;18.02;11.75;;;;;;;29.53;31.59;100496.66;5017953;28;20036;-71
2022/08/25 05:30:06;;;;;;;19.30;11.10;;;;;;;29.93;30.59;100495.53;5035638;28;20097;-68
2022/08/25 05:32:31;;;;;;;22.92;11.00;;;;;;;30.30;30.13;100495.88;5035706;28;20040;-69
2022/08/25 05:34:56;;;;;;;19.50;12.00;;;;;;;30.59;29.68;100495.34;5017472;28;20071;-70
2022/08/25 05:37:20;;;;;;;18.25;11.38;;;;;;;30.93;29.33;100487.75;5035658;28;20040;-70
2022/08/25 05:39:45;;;;;;;17.13;11.40;;;;;;;31.05;29.14;100494.22;5017288;28;20499;-70
2022/08/25 05:42:10;;;;;;;16.55;10.88;;;;;;;31.17;28.85;100492.47;5035239;28;20418;-70
2022/08/25 05:44:35;;;;;;;17.95;11.07;;;;;;;31.30;28.18;100495.13;5035674;28;20113;-69
2022/08/25 05:46:59;;;;;;;20.85;10.63;;;;;;;31.45;28.43;100494.81;5035689;28;20255;-69
2022/08/25 05:49:24;;;;;;;18.23;11.15;;;;;;;31.87;28.24;100489.56;5036129;28;20044;-68
2022/08/25 05:51:49;;;;;;;18.85;11.10;;;;;;;32.38;26.98;100486.47;5035886;28;20524;-68
2022/08/25 05:54:14;;;;;;;15.90;10.95;;;;;;;32.83;26.05;100488.88;5035040;28;20647;-69
2022/08/25 05:56:39;;;;;;;23.52;11.35;;;;;;;33.26;25.58;100483.97;5036062;28;20445;-68
2022/08/25 05:59:03;;;;;;;15.45;10.80;;;;;;;33.59;25.34;100479.81;5019443;28;20040;-69
2022/08/25 06:04:14;;;;;;;22.33;12.60;;;;;;;34.50;23.46;100490.19;5035092;28;20048;-69
2022/08/25 06:06:40;;;;;;;19.83;12.40;;;;;;;34.83;22.76;100489.50;5035007;28;20753;-70
2022/08/25 06:09:07;;;;;;;16.70;10.02;;;;;;;34.95;22.58;100493.88;5017155;28;20033;-70
2022/08/25 06:11:32;;;;;;;16.70;11.48;;;;;;;35.12;22.41;100493.06;5017940;28;20048;-70
2022/08/25 06:13:56;;;;;;;21.58;10.88;;;;;;;35.36;22.03;100489.09;5035765;28;20036;-70
2022/08/25 06:16:21;;;;;;;19.13;10.85;;;;;;;35.64;21.75;100490.94;5017090;28;20147;-70
2022/08/25 06:18:46;;;;;;;18.50;10.63;;;;;;;35.93;21.49;100489.72;5034768;28;20519;-70
2022/08/25 06:21:13;;;;;;;14.07;10.55;;;;;;;36.21;20.98;100496.22;5034834;28;20043;-69
2022/08/25 06:23:38;;;;;;;16.88;10.45;;;;;;;36.44;20.68;100492.38;5034823;28;20163;-67
2022/08/25 06:26:03;;;;;;;12.77;9.30;;;;;;;36.59;20.44;100496.19;5016723;28;20047;-69
2022/08/25 06:28:28;;;;;;;16.95;11.18;;;;;;;37.02;20.34;100494.47;5034609;28;20043;-68
2022/08/25 06:30:58;;;;;;;14.18;10.15;;;;;;;37.42;19.74;100499.56;5016516;28;20052;-68
2022/08/25 06:33:23;;;;;;;14.07;10.50;;;;;;;37.39;19.54;100483.41;5034651;28;20059;-69
2022/08/25 06:35:52;;;;;;;11.57;9.68;;;;;;;37.71;18.98;100492.59;5034427;28;20127;-69
2022/08/25 06:38:16;;;;;;;13.18;10.77;;;;;;;38.30;18.77;100488.78;5016471;28;20060;-69
2022/08/25 06:40:41;;;;;;;23.63;10.07;;;;;;;38.88;18.07;100489.56;5034380;28;20048;-68
2022/08/25 06:43:07;;;;;;;11.80;9.82;;;;;;;39.39;17.76;100490.47;5000048;28;20407;-68
2022/08/25 06:45:32;;;;;;;14.43;9.75;;;;;;;39.99;17.31;100488.75;5034321;28;20041;-68
2022/08/25 06:47:58;;;;;;;14.25;9.15;;;;;;;40.47;16.69;100485.25;5034299;28;20044;-68
2022/08/25 06:50:23;;;;;;;14.82;10.25;;;;;;;40.80;16.31;100494.06;5034452;28;20598;-67
2022/08/25 06:52:47;;;;;;;16.98;10.05;;;;;;;41.21;15.91;100487.06;5034534;28;20491;-69
2022/08/25 06:55:12;;;;;;;13.98;9.43;;;;;;;41.38;15.57;100488.63;5034227;28;20378;-70
2022/08/25 06:57:37;;;;;;;15.85;9.50;;;;;;;41.72;15.42;100481.03;5034464;28;20044;-69
2022/08/25 07:00:06;;;;;;;14.48;10.07;;;;;;;42.38;14.96;100488.75;5034173;28;20040;-68
2022/08/25 07:02:31;;;;;;;20.30;10.57;;;;;;;42.94;14.54;100487.97;5034303;28;20131;-68
2022/08/25 07:04:56;;;;;;;15.05;9.85;;;;;;;43.26;13.86;100487.22;5016007;28;20499;-69
2022/08/25 07:07:21;;;;;;;13.68;10.75;;;;;;;43.35;13.59;100489.00;4999635;28;20499;-69
2022/08/25 07:09:46;;;;;;;10.35;8.93;;;;;;;43.43;13.32;100479.91;5016225;28;20044;-68
2022/08/25 07:12:11;;;;;;;11.90;10.75;;;;;;;43.87;13.68;100475.75;5016068;28;20098;-69
2022/08/25 07:14:35;;;;;;;19.75;11.75;;;;;;;44.08;13.30;100482.66;4999728;28;20045;-69
2022/08/25 07:17:00;;;;;;;16.15;10.80;;;;;;;44.51;13.50;100480.34;5016313;28;20429;-69
2022/08/25 07:19:25;;;;;;;13.23;11.38;;;;;;;44.82;12.37;100494.56;5034359;28;20036;-69
2022/08/25 07:21:51;;;;;;;19.25;10.90;;;;;;;45.01;12.56;100490.78;5034068;28;20048;-68
2022/08/25 07:24:17;;;;;;;11.70;10.55;;;;;;;45.45;12.54;100482.38;5033978;28;20054;-67
2022/08/25 07:26:42;;;;;;;16.27;11.82;;;;;;;46.26;12.02;100483.00;5034047;28;20048;-66
2022/08/25 07:29:14;;;;;;;14.88;11.95;;;;;;;47.17;11.54;100481.31;5033949;28;20378;-69
2022/08/25 07:31:40;;;;;;;17.25;12.43;;;;;;;47.05;11.08;100481.16;5034176;28;20044;-68
2022/08/25 07:36:50;;;;;;;13.30;11.98;;;;;;;47.49;11.21;100480.78;5033870;28;20668;-67
2022/08/25 07:39:16;;;;;;;20.05;12.15;;;;;;;47.21;11.16;100482.28;5033812;28;20571;-66
2022/08/25 07:41:41;;;;;;;14.90;13.55;;;;;;;47.05;11.16;100478.34;5034657;28;20127;-67
2022/08/25 07:44:08;;;;;;;15.05;13.15;;;;;;;47.11;11.05;100475.00;5019638;28;20045;-69
2022/08/25 07:46:32;;;;;;;16.02;12.88;;;;;;;47.79;10.88;100475.22;5019575;28;20052;-66
2022/08/25 07:48:57;;;;;;;16.13;14.43;;;;;;;48.60;10.21;100480.66;5037554;28;20044;-68
2022/08/25 07:51:22;;;;;;;13.95;12.70;;;;;;;48.51;9.78;100474.25;5034386;28;20087;-68
2022/08/25 07:53:47;;;;;;;16.08;13.52;;;;;;;48.00;10.28;100471.31;5057218;28;20040;-68
2022/08/25 07:56:15;;;;;;;15.60;14.10;;;;;;;47.76;10.29;100473.06;5057728;28;20139;-69
2022/08/25 07:58:40;;;;;;;17.02;15.27;;;;;;;48.22;10.39;100470.22;5057445;28;20036;-70
2022/08/25 08:01:05;;;;;;;16.50;14.13;;;;;;;48.42;10.34;100468.63;5057729;28;20134;-70
2022/08/25 08:03:32;;;;;;;14.63;13.35;;;;;;;48.49;9.73;100465.25;5057569;28;20457;-69
2022/08/25 08:05:58;;;;;;;15.57;14.20;;;;;;;47.82;10.34;100457.59;5057490;28;20093;-69
2022/08/25 08:08:23;;;;;;;17.60;15.32;;;;;;;47.23;10.68;100460.19;5038858;28;20040;-68
2022/08/25 08:10:48;;;;;;;14.88;13.40;;;;;;;46.78;11.28;100448.41;5038863;28;20040;-68
2022/08/25 08:13:13;;;;;;;17.98;14.85;;;;;;;46.95;11.00;100449.25;5039234;28;20044;-68
2022/08/25 08:15:42;;;;;;;14.98;13.43;;;;;;;47.19;11.17;100454.38;5040096;28;20047;-70
2022/08/25 08:18:07;;;;;;;15.93;14.35;;;;;;;47.13;10.73;100437.94;5059825;28;20470;-70
2022/08/25 08:20:33;;;;;;;15.60;14.15;;;;;;;47.45;11.60;100437.41;5039060;28;20146;-70
2022/08/25 08:22:57;;;;;;;16.70;14.70;;;;;;;47.57;10.75;100448.00;5022485;28;20043;-69
2022/08/25 08:25:22;;;;;;;15.60;13.98;;;;;;;46.41;11.65;100433.72;5058294;28;20044;-69
2022/08/25 08:27:49;;;;;;;14.35;12.80;;;;;;;47.04;11.50;100437.13;5039324;28;20040;-69
2022/08/25 08:30:14;;;;;;;15.50;14.20;;;;;;;48.47;10.22;100434.47;5039385;28;20046;-70
2022/08/25 08:32:38;;;;;;;16.85;15.45;;;;;;;50.02;9.67;100441.44;5039777;28;20039;-69
2022/08/25 08:35:04;;;;;;;18.52;16.85;;;;;;;51.35;8.84;100436.66;5057404;28;20047;-67
2022/08/25 08:37:30;;;;;;;21.60;19.50;;;;;;;51.50;7.90;100443.53;5040946;28;20036;-69
2022/08/25 08:39:55;;;;;;;18.88;17.13;;;;;;;50.14;8.85;100446.28;5059414;28;20126;-69
2022/08/25 08:42:41;;;;;;;19.65;17.73;;;;;;;49.86;9.35;100434.84;5057557;28;20114;-68
2022/08/25 08:45:32;;;;;;;20.77;19.17;;;;;;;51.41;9.01;100435.19;5056761;28;20571;-69
2022/08/25 08:48:21;;;;;;;23.10;21.38;;;;;;;52.59;7.78;100428.44;5057294;28;20113;-67
2022/08/25 08:50:55;;;;;;;23.15;21.27;;;;;;;52.85;8.09;100441.16;5038701;28;20047;-66
2022/08/25 08:53:40;;;;;;;24.65;22.02;;;;;;;52.49;7.85;100433.88;5056258;28;20044;-68
2022/08/25 08:56:15;;;;;;;25.30;23.52;;;;;;;52.81;7.10;100437.44;5056337;28;20407;-69
2022/08/25 08:59:01;;;;;;;26.00;23.80;;;;;;;52.50;6.89;100424.09;5056279;28;20040;-68
2022/08/25 09:01:34;;;;;;;24.30;22.40;;;;;;;52.67;7.23;100428.59;5056974;28;20032;-67
2022/08/25 09:04:03;;;;;;;19.77;17.85;;;;;;;51.22;8.09;100425.72;5021365;28;20059;-68
2022/08/25 09:06:36;;;;;;;22.55;20.88;;;;;;;50.92;8.01;100423.22;5049777;28;20040;-68
2022/08/25 09:09:04;;;;;;;20.38;18.80;;;;;;;50.42;7.83;100415.19;5025658;28;20040;-67
2022/08/25 09:11:49;;;;;;;19.17;17.77;;;;;;;50.08;8.28;100416.50;5046039;28;20068;-70
2022/08/25 09:14:33;;;;;;;21.05;19.38;;;;;;;49.60;8.59;100405.94;5029561;28;20847;-70
2022/08/25 09:17:35;;;;;;;18.60;17.08;;;;;;;49.55;7.94;100412.69;5011162;28;20037;-69
2022/08/25 09:20:11;;;;;;;20.93;19.53;;;;;;;49.50;8.67;100398.72;5049081;28;20036;-70
2022/08/25 09:22:55;;;;;;;19.65;17.83;;;;;;;49.08;9.16;100407.34;5035021;28;20394;-71
2022/08/25 09:25:44;;;;;;;18.70;16.88;;;;;;;48.40;9.28;100403.06;5046818;28;20035;-70
2022/08/25 09:28:20;;;;;;;17.50;16.23;;;;;;;47.88;9.15;100402.50;5052649;28;20395;-69
2022/08/25 09:30:56;;;;;;;17.38;15.98;;;;;;;47.47;9.35;100392.69;5045762;28;20045;-70
2022/08/25 09:33:23;;;;;;;17.02;15.35;;;;;;;47.03;9.81;100384.66;5035279;28;20044;-71
2022/08/25 09:35:50;;;;;;;17.45;15.95;;;;;;;46.64;9.70;100386.47;5033428;28;20058;-69
2022/08/25 09:38:15;;;;;;;18.55;14.65;;;;;;;46.71;9.71;100391.66;5027537;28;20044;-70
2022/08/25 09:40:44;;;;;;;14.85;13.55;;;;;;;46.45;9.80;100385.97;5055172;28;20040;-70
2022/08/25 09:43:36;;;;;;;14.95;13.70;;;;;;;47.54;9.66;100380.88;5055671;28;20472;-70
2022/08/25 09:46:04;;;;;;;18.40;17.00;;;;;;;49.42;8.80;100382.66;5037165;28;20044;-69
2022/08/25 09:48:36;;;;;;;19.88;18.48;;;;;;;51.29;7.78;100388.97;5055290;28;20051;-71
2022/08/25 09:51:19;;;;;;;19.73;18.42;;;;;;;53.04;7.14;100386.25;5036979;28;20135;-69
2022/08/25 09:53:52;;;;;;;22.27;20.73;;;;;;;53.32;6.39;100442.97;5036887;28;20130;-68
2022/08/25 09:56:20;;;;;;;21.23;19.25;;;;;;;51.24;7.59;100383.56;5055086;28;20121;-69
2022/08/25 09:58:45;;;;;;;19.05;17.55;;;;;;;48.64;8.43;100368.44;5054841;28;20044;-68
2022/08/25 10:01:12;;;;;;;14.55;13.27;;;;;;;46.02;10.01;100352.88;5055119;28;20043;-67
2022/08/25 10:03:53;;;;;;;14.93;13.55;;;;;;;44.99;11.15;100363.59;5020060;28;20059;-68
2022/08/25 10:06:18;;;;;;;16.15;14.63;;;;;;;44.35;11.72;100360.94;5054619;28;20121;-68
2022/08/25 10:08:43;;;;;;;14.35;13.02;;;;;;;44.36;12.00;100356.16;5036680;28;20078;-67
2022/08/25 10:11:14;;;;;;;16.00;13.98;;;;;;;45.51;11.09;100353.50;5036238;28;20505;-68
2022/08/25 10:13:50;;;;;;;14.05;12.52;;;;;;;46.24;10.29;100361.19;5036618;28;20116;-69
2022/08/25 10:16:30;;;;;;;14.95;13.50;;;;;;;46.28;10.13;100353.75;5051050;28;20035;-69
2022/08/25 10:19:21;;;;;;;13.00;11.90;;;;;;;45.50;10.71;100357.44;5042783;28;20032;-69
2022/08/25 10:22:09;;;;;;;15.00;11.90;;;;;;;43.50;11.94;100341.06;5046710;28;20101;-68
2022/08/25 10:24:36;;;;;;;11.95;10.93;;;;;;;41.40;13.00;100336.06;5045417;28;20179;-67
2022/08/25 10:27:21;;;;;;;11.18;10.10;;;;;;;40.27;14.41;100340.03;5043068;28;20028;-69
2022/08/25 10:29:52;;;;;;;13.52;12.13;;;;;;;39.24;14.88;100328.66;5026587;28;20565;-70
2022/08/25 10:32:26;;;;;;;13.75;11.07;;;;;;;38.68;16.34;100328.69;5026596;28;20144;-68
2022/08/25 10:34:57;;;;;;;10.80;9.55;;;;;;;37.90;16.12;100322.34;5024073;28;20048;-69
2022/08/25 10:38:06;;;;;;;11.90;10.52;;;;;;;37.64;16.96;100319.47;5042414;28;20044;-68
2022/08/25 10:41:01;;;;;;;15.45;9.38;;;;;;;37.33;16.69;100318.44;4971292;28;20522;-70
2022/08/25 10:43:44;;;;;;;12.20;9.73;;;;;;;36.57;18.13;100309.47;4970474;28;20124;-69
2022/08/25 10:46:28;;;;;;;16.92;10.07;;;;;;;36.49;17.81;100309.94;4970689;28;20561;-72
2022/08/25 10:48:52;;;;;;;;;;;;;;;36.60;17.30;100308.94;4949914;28;20140;-70
2022/08/25 10:51:54;;;;;;;10.20;9.15;;;;;;;36.30;17.75;100306.72;4971403;28;20028;-71
2022/08/25 10:54:43;;;;;;;12.18;9.43;;;;;;;35.39;19.26;100313.88;4971724;28;20037;-69
2022/08/25 10:57:08;;;;;;;16.30;9.65;;;;;;;34.57;20.68;100294.25;4954442;28;20126;-69
2022/08/25 10:59:49;;;;;;;15.48;9.77;;;;;;;34.46;20.11;100303.47;4939242;28;20133;-71
2022/08/25 11:02:37;;;;;;;11.38;8.68;;;;;;;34.17;20.14;100292.41;4970304;28;20046;-72
2022/08/25 11:05:11;;;;;;;13.95;9.68;;;;;;;33.81;20.58;100287.28;4956204;28;20133;-70
2022/08/25 11:07:41;;;;;;;11.05;9.27;;;;;;;33.63;21.23;100281.91;4972730;28;20084;-71
2022/08/25 11:10:41;;;;;;;11.48;9.73;;;;;;;33.67;20.76;100285.84;4956287;28;20144;-71
2022/08/25 11:13:16;;;;;;;12.68;9.50;;;;;;;33.36;21.02;100276.91;4939347;28;20543;-68
2022/08/25 11:16:13;;;;;;;12.98;8.90;;;;;;;33.25;21.14;100280.53;4956404;28;20921;-69
2022/08/25 11:18:45;;;;;;;17.50;10.15;;;;;;;33.01;21.37;100279.69;4996173;28;20436;-72
2022/08/25 11:21:22;;;;;;;13.45;9.52;;;;;;;32.91;22.03;100270.31;4996324;28;20526;-76
2022/08/25 11:24:04;;;;;;;14.35;10.57;;;;;;;32.83;22.03;100273.44;4995791;28;20053;-71
2022/08/25 11:26:33;;;;;;;13.13;10.20;;;;;;;32.33;22.67;100279.34;4995954;28;20045;-71
2022/08/25 11:29:17;;;;;;;14.55;9.95;;;;;;;32.04;23.08;100261.72;4979204;28;20045;-71
2022/08/25 11:31:48;;;;;;;17.40;9.65;;;;;;;31.90;23.22;100261.06;4981714;28;20380;-71
2022/08/25 11:34:14;;;;;;;10.30;9.20;;;;;;;31.87;23.73;100253.25;4959838;28;20707;-71